createdAt,value
2023-03-18T00:01:09.480Z,84
2023-03-18T00:03:07.980Z,84
2023-03-18T00:05:06.633Z,84
2023-03-18T00:07:06.382Z,84
2023-03-18T00:09:06.326Z,84
2023-03-18T00:11:09.663Z,84
2023-03-18T00:13:06.905Z,84
2023-03-18T00:15:04.432Z,84
2023-03-18T00:17:06.383Z,84
2023-03-18T00:19:09.365Z,84
2023-03-18T00:21:06.321Z,84
2023-03-18T00:23:09.693Z,84
2023-03-18T00:25:06.272Z,84
2023-03-18T00:27:06.369Z,84
2023-03-18T00:29:06.340Z,84
2023-03-18T00:31:06.484Z,84
2023-03-18T00:33:06.478Z,83
2023-03-18T00:35:06.377Z,83
2023-03-18T00:37:09.462Z,84
2023-03-18T00:39:07.898Z,83
2023-03-18T00:41:09.378Z,83
2023-03-18T00:43:06.375Z,83
2023-03-18T00:45:06.328Z,83
2023-03-18T00:47:06.378Z,83
2023-03-18T00:49:06.413Z,84
2023-03-18T00:51:06.830Z,84
2023-03-18T00:53:07.051Z,84
2023-03-18T00:55:07.943Z,84
2023-03-18T00:57:06.342Z,83
2023-03-18T01:01:10.652Z,83
2023-03-18T01:03:09.367Z,83
2023-03-18T01:05:06.462Z,83
2023-03-18T01:07:06.325Z,83
2023-03-18T01:09:06.604Z,83
2023-03-18T01:13:06.735Z,83
2023-03-18T01:15:06.283Z,82
2023-03-18T01:17:06.621Z,82
2023-03-18T01:19:10.933Z,83
2023-03-18T01:21:06.390Z,83
2023-03-18T01:25:09.203Z,82
2023-03-18T01:27:09.421Z,82
2023-03-18T01:29:09.180Z,82
2023-03-18T01:31:09.456Z,82
2023-03-18T01:33:06.766Z,82
2023-03-18T01:35:05.655Z,82
2023-03-18T01:37:06.414Z,82
2023-03-18T01:39:09.247Z,82
2023-03-18T01:41:06.338Z,82
2023-03-18T01:43:07.508Z,83
2023-03-18T01:45:06.319Z,83
2023-03-18T01:47:07.923Z,83
2023-03-18T01:49:06.316Z,83
2023-03-18T01:51:06.379Z,83
2023-03-18T01:53:06.309Z,83
2023-03-18T01:57:06.366Z,82
2023-03-18T01:59:06.315Z,83
2023-03-18T02:01:06.215Z,83
2023-03-18T02:03:06.340Z,83
2023-03-18T02:05:06.698Z,83
2023-03-18T02:07:06.455Z,83
2023-03-18T02:09:06.128Z,83
2023-03-18T02:11:06.576Z,83
2023-03-18T02:13:09.118Z,83
2023-03-18T02:15:06.390Z,83
2023-03-18T02:17:06.088Z,83
2023-03-18T02:19:09.325Z,83
2023-03-18T02:21:06.364Z,83
2023-03-18T02:23:06.329Z,83
2023-03-18T02:25:09.448Z,83
2023-03-18T02:27:09.771Z,83
2023-03-18T02:29:09.343Z,83
2023-03-18T02:31:06.353Z,83
2023-03-18T02:33:09.511Z,83
2023-03-18T02:35:06.322Z,83
2023-03-18T02:37:06.029Z,83
2023-03-18T02:39:06.326Z,83
2023-03-18T02:41:06.277Z,83
2023-03-18T02:43:06.187Z,83
2023-03-18T02:45:06.349Z,83
2023-03-18T02:47:05.944Z,82
2023-03-18T02:49:05.642Z,82
2023-03-18T02:51:06.585Z,82
2023-03-18T02:53:06.332Z,82
2023-03-18T02:55:06.396Z,82
2023-03-18T02:57:06.443Z,82
2023-03-18T02:59:06.331Z,82
2023-03-18T03:01:06.401Z,82
2023-03-18T03:03:06.469Z,82
2023-03-18T03:05:06.426Z,81
2023-03-18T03:07:06.394Z,82
2023-03-18T03:09:06.353Z,82
2023-03-18T03:11:12.473Z,82
2023-03-18T03:13:11.017Z,82
2023-03-18T03:15:06.347Z,82
2023-03-18T03:17:05.981Z,82
2023-03-18T03:19:06.313Z,82
2023-03-18T03:21:06.342Z,82
2023-03-18T03:23:06.314Z,82
2023-03-18T03:25:05.696Z,82
2023-03-18T03:27:06.437Z,82
2023-03-18T03:29:05.680Z,82
2023-03-18T03:31:05.861Z,82
2023-03-18T03:33:05.784Z,83
2023-03-18T03:35:09.446Z,83
2023-03-18T03:37:09.264Z,82
2023-03-18T03:39:06.335Z,82
2023-03-18T03:41:06.312Z,82
2023-03-18T03:43:09.356Z,82
2023-03-18T03:45:04.866Z,81
2023-03-18T03:47:09.320Z,82
2023-03-18T03:49:06.312Z,82
2023-03-18T03:51:06.135Z,82
2023-03-18T03:53:05.940Z,82
2023-03-18T03:55:06.349Z,82
2023-03-18T03:57:06.382Z,82
2023-03-18T03:59:06.355Z,83
2023-03-18T04:01:06.743Z,82
2023-03-18T04:03:06.380Z,82
2023-03-18T04:05:06.509Z,82
2023-03-18T04:07:06.361Z,83
2023-03-18T04:09:08.009Z,82
2023-03-18T04:11:06.310Z,82
2023-03-18T04:13:08.003Z,83
2023-03-18T04:15:05.954Z,83
2023-03-18T04:17:06.353Z,83
2023-03-18T04:19:06.338Z,83
2023-03-18T04:21:06.440Z,83
2023-03-18T04:23:05.677Z,82
2023-03-18T04:25:06.016Z,82
2023-03-18T04:27:06.382Z,82
2023-03-18T04:29:09.688Z,82
2023-03-18T04:31:06.411Z,82
2023-03-18T04:33:06.366Z,82
2023-03-18T04:35:06.034Z,83
2023-03-18T04:37:06.391Z,83
2023-03-18T04:39:07.943Z,83
2023-03-18T04:41:07.180Z,82
2023-03-18T04:43:09.466Z,82
2023-03-18T04:45:06.383Z,82
2023-03-18T04:47:09.446Z,82
2023-03-18T04:49:09.394Z,82
2023-03-18T04:51:09.399Z,82
2023-03-18T04:53:06.316Z,82
2023-03-18T04:55:06.493Z,82
2023-03-18T04:57:06.322Z,82
2023-03-18T04:59:06.382Z,82
2023-03-18T05:03:08.062Z,82
2023-03-18T05:05:09.507Z,82
2023-03-18T05:07:09.178Z,81
2023-03-18T05:09:09.196Z,81
2023-03-18T05:11:06.315Z,82
2023-03-18T05:13:06.307Z,81
2023-03-18T05:15:06.309Z,81
2023-03-18T05:17:10.617Z,82
2023-03-18T05:19:06.361Z,81
2023-03-18T05:21:06.381Z,81
2023-03-18T05:23:06.294Z,81
2023-03-18T05:25:05.699Z,81
2023-03-18T05:27:09.353Z,81
2023-03-18T05:29:07.894Z,81
2023-03-18T05:33:06.632Z,81
2023-03-18T05:35:07.176Z,82
2023-03-18T05:37:12.333Z,82
2023-03-18T05:39:06.289Z,81
2023-03-18T05:41:08.719Z,81
2023-03-18T05:43:06.308Z,81
2023-03-18T05:45:09.372Z,81
2023-03-18T05:47:06.478Z,81
2023-03-18T05:49:09.344Z,81
2023-03-18T05:51:06.598Z,81
2023-03-18T05:53:06.349Z,81
2023-03-18T05:55:06.350Z,81
2023-03-18T05:57:06.405Z,81
2023-03-18T05:59:06.402Z,81
2023-03-18T06:01:05.672Z,81
2023-03-18T06:03:06.403Z,81
2023-03-18T06:05:06.446Z,81
2023-03-18T06:07:06.438Z,81
2023-03-18T06:09:06.002Z,81
2023-03-18T06:11:06.343Z,81
2023-03-18T06:13:06.875Z,81
2023-03-18T06:15:09.519Z,81
2023-03-18T06:17:09.190Z,81
2023-03-18T06:19:06.365Z,80
2023-03-18T06:21:10.917Z,80
2023-03-18T06:23:09.414Z,80
2023-03-18T06:25:06.431Z,80
2023-03-18T06:27:06.354Z,80
2023-03-18T06:29:06.364Z,80
2023-03-18T06:31:05.725Z,80
2023-03-18T06:33:06.408Z,80
2023-03-18T06:35:06.389Z,80
2023-03-18T06:37:06.332Z,79
2023-03-18T06:39:06.385Z,80
2023-03-18T06:41:07.526Z,80
2023-03-18T06:43:05.726Z,78
2023-03-18T06:45:06.338Z,77
2023-03-18T06:47:06.341Z,76
2023-03-18T06:49:09.608Z,75
2023-03-18T06:51:06.378Z,74
2023-03-18T06:53:09.409Z,75
2023-03-18T06:55:06.309Z,74
2023-03-18T06:57:06.398Z,74
2023-03-18T06:59:04.407Z,74
2023-03-18T07:01:06.368Z,75
2023-03-18T07:03:09.187Z,77
2023-03-18T07:05:12.411Z,79
2023-03-18T07:07:06.353Z,79
2023-03-18T07:09:05.636Z,77
2023-03-18T07:11:06.372Z,76
2023-03-18T07:13:10.579Z,76
2023-03-18T07:15:06.555Z,76
2023-03-18T07:17:06.629Z,75
2023-03-18T07:19:09.328Z,71
2023-03-18T07:21:05.958Z,70
2023-03-18T07:23:06.345Z,70
2023-03-18T07:25:09.665Z,69
2023-03-18T07:27:06.331Z,69
2023-03-18T07:29:06.509Z,69
2023-03-18T07:31:06.379Z,69
2023-03-18T07:33:06.408Z,69
2023-03-18T07:35:09.359Z,69
2023-03-18T07:37:06.405Z,69
2023-03-18T07:39:06.413Z,67
2023-03-18T07:41:06.318Z,67
2023-03-18T07:43:05.950Z,67
2023-03-18T07:45:06.437Z,67
2023-03-18T07:47:09.234Z,68
2023-03-18T07:49:06.023Z,67
2023-03-18T07:51:06.365Z,67
2023-03-18T07:53:06.387Z,67
2023-03-18T07:55:06.340Z,66
2023-03-18T07:59:09.264Z,66
2023-03-18T08:01:06.439Z,67
2023-03-18T08:05:06.366Z,67
2023-03-18T08:07:09.401Z,67
2023-03-18T08:09:06.412Z,67
2023-03-18T08:11:06.558Z,67
2023-03-18T08:13:06.383Z,66
2023-03-18T08:15:06.326Z,66
2023-03-18T08:17:09.413Z,66
2023-03-18T08:19:06.005Z,65
2023-03-18T08:21:06.397Z,65
2023-03-18T08:23:06.331Z,63
2023-03-18T08:25:09.062Z,63
2023-03-18T08:27:06.448Z,63
2023-03-18T08:29:09.269Z,62
2023-03-18T08:31:12.713Z,62
2023-03-18T08:35:06.400Z,62
2023-03-18T08:37:09.437Z,61
2023-03-18T08:39:06.376Z,61
2023-03-18T08:41:09.461Z,62
2023-03-18T08:43:09.341Z,62
2023-03-18T08:45:09.622Z,61
2023-03-18T08:47:06.654Z,61
2023-03-18T08:49:06.432Z,61
2023-03-18T08:51:06.379Z,62
2023-03-18T08:53:06.434Z,61
2023-03-18T08:55:09.500Z,61
2023-03-18T08:57:07.933Z,61
2023-03-18T08:59:06.395Z,60
2023-03-18T09:01:06.204Z,60
2023-03-18T09:03:09.535Z,61
2023-03-18T09:05:06.390Z,61
2023-03-18T09:07:05.969Z,60
2023-03-18T09:09:06.446Z,59
2023-03-18T09:11:06.442Z,59
2023-03-18T09:13:09.496Z,59
2023-03-18T09:15:06.331Z,58
2023-03-18T09:17:09.231Z,58
2023-03-18T09:19:06.366Z,58
2023-03-18T09:21:04.392Z,58
2023-03-18T09:23:06.425Z,57
2023-03-18T09:25:06.008Z,57
2023-03-18T09:27:09.495Z,57
2023-03-18T09:29:06.394Z,57
2023-03-18T09:31:06.465Z,58
2023-03-18T09:33:12.759Z,58
2023-03-18T09:35:06.424Z,57
2023-03-18T09:37:06.383Z,57
2023-03-18T09:39:06.435Z,57
2023-03-18T09:41:08.831Z,58
2023-03-18T09:45:09.252Z,57
2023-03-18T09:47:08.157Z,58
2023-03-18T09:49:09.137Z,58
2023-03-18T09:51:06.574Z,57
2023-03-18T09:53:06.404Z,57
2023-03-18T09:57:06.216Z,57
2023-03-18T09:59:09.512Z,57
2023-03-18T10:01:06.585Z,56
2023-03-18T10:03:06.786Z,55
2023-03-18T10:05:06.343Z,56
2023-03-18T10:07:06.613Z,55
2023-03-18T10:11:06.457Z,55
2023-03-18T10:13:05.783Z,56
2023-03-18T10:15:09.497Z,55
2023-03-18T10:17:09.717Z,55
2023-03-18T10:19:12.499Z,55
2023-03-18T10:21:09.452Z,55
2023-03-18T10:23:09.103Z,56
2023-03-18T10:25:06.342Z,53
2023-03-18T10:27:06.437Z,54
2023-03-18T10:31:06.393Z,53
2023-03-18T10:33:06.541Z,53
2023-03-18T10:35:07.887Z,52
2023-03-18T10:37:04.383Z,53
2023-03-18T10:39:06.860Z,53
2023-03-18T10:41:06.481Z,53
2023-03-18T10:43:06.345Z,52
2023-03-18T10:45:06.652Z,52
2023-03-18T10:47:07.595Z,53
2023-03-18T10:49:06.450Z,55
2023-03-18T10:51:05.973Z,52
2023-03-18T10:53:06.409Z,53
2023-03-18T10:55:06.515Z,52
2023-03-18T10:57:09.252Z,52
2023-03-18T10:59:06.423Z,53
2023-03-18T11:01:09.680Z,53
2023-03-18T11:03:06.429Z,53
2023-03-18T11:05:06.387Z,52
2023-03-18T11:07:06.387Z,53
2023-03-18T11:09:07.995Z,54
2023-03-18T11:11:06.471Z,58
2023-03-18T11:13:06.697Z,56
2023-03-18T11:15:09.409Z,52
2023-03-18T11:17:06.354Z,52
2023-03-18T11:19:06.776Z,51
2023-03-18T11:21:05.911Z,53
2023-03-18T11:23:06.463Z,53
2023-03-18T11:25:06.369Z,51
2023-03-18T11:27:05.988Z,52
2023-03-18T11:29:06.664Z,52
2023-03-18T11:31:06.491Z,52
2023-03-18T11:33:06.478Z,52
2023-03-18T11:35:06.435Z,52
2023-03-18T11:39:06.385Z,53
2023-03-18T11:41:06.481Z,52
2023-03-18T11:43:06.030Z,52
2023-03-18T11:45:09.542Z,53
2023-03-18T11:47:06.052Z,52
2023-03-18T11:49:06.364Z,53
2023-03-18T11:51:06.378Z,53
2023-03-18T11:53:09.535Z,52
2023-03-18T11:55:07.929Z,52
2023-03-18T11:57:06.442Z,55
2023-03-18T11:59:09.478Z,53
2023-03-18T12:01:07.965Z,52
2023-03-18T12:03:09.436Z,53
2023-03-18T12:05:06.522Z,53
2023-03-18T12:07:06.416Z,52
2023-03-18T12:09:05.969Z,52
2023-03-18T12:11:06.404Z,53
2023-03-18T12:13:09.724Z,53
2023-03-18T12:15:05.970Z,54
2023-03-18T12:19:06.118Z,53
2023-03-18T12:21:05.700Z,52
2023-03-18T12:23:09.480Z,53
2023-03-18T12:25:06.377Z,55
2023-03-18T12:27:09.498Z,58
2023-03-18T12:29:12.560Z,55
2023-03-18T12:31:06.439Z,52
2023-03-18T12:33:09.826Z,53
2023-03-18T12:35:09.451Z,53
2023-03-18T12:37:05.978Z,52
2023-03-18T12:39:09.309Z,53
2023-03-18T12:41:12.822Z,57
2023-03-18T12:43:09.680Z,55
2023-03-18T12:45:06.413Z,54
2023-03-18T12:47:09.439Z,55
2023-03-18T12:49:09.428Z,55
2023-03-18T12:51:06.445Z,54
2023-03-18T12:53:06.385Z,54
2023-03-18T12:55:06.381Z,54
2023-03-18T12:57:06.471Z,52
2023-03-18T12:59:06.404Z,53
2023-03-18T13:01:06.571Z,52
2023-03-18T13:03:07.562Z,51
2023-03-18T13:05:07.468Z,51
2023-03-18T13:07:06.353Z,51
2023-03-18T13:09:06.359Z,52
2023-03-18T13:11:08.897Z,54
2023-03-18T13:13:06.406Z,52
2023-03-18T13:15:06.244Z,52
2023-03-18T13:17:06.418Z,52
2023-03-18T13:19:06.400Z,53
2023-03-18T13:21:06.451Z,54
2023-03-18T13:23:07.507Z,53
2023-03-18T13:25:06.358Z,53
2023-03-18T13:27:06.420Z,53
2023-03-18T13:29:07.970Z,52
2023-03-18T13:31:06.549Z,53
2023-03-18T13:33:09.423Z,52
2023-03-18T13:35:06.345Z,52
2023-03-18T13:37:09.176Z,52
2023-03-18T13:39:06.330Z,52
2023-03-18T13:41:05.984Z,52
2023-03-18T13:43:08.018Z,51
2023-03-18T13:45:05.976Z,51
2023-03-18T13:47:07.922Z,51
2023-03-18T13:49:09.441Z,51
2023-03-18T13:51:05.963Z,51
2023-03-18T13:53:08.010Z,51
2023-03-18T13:55:06.428Z,53
2023-03-18T13:57:09.474Z,52
2023-03-18T13:59:06.458Z,52
2023-03-18T14:01:08.897Z,52
2023-03-18T14:03:06.513Z,52
2023-03-18T14:05:06.397Z,52
2023-03-18T14:07:06.349Z,53
2023-03-18T14:09:06.044Z,52
2023-03-18T14:11:09.487Z,52
2023-03-18T14:13:06.489Z,52
2023-03-18T14:15:06.414Z,51
2023-03-18T14:17:06.370Z,51
2023-03-18T14:19:05.997Z,52
2023-03-18T14:21:08.039Z,52
2023-03-18T14:23:06.661Z,53
2023-03-18T14:25:13.154Z,52
2023-03-18T14:27:06.408Z,51
2023-03-18T14:29:06.434Z,51
2023-03-18T14:31:08.992Z,51
2023-03-18T14:33:06.689Z,52
2023-03-18T14:35:05.761Z,52
2023-03-18T14:37:06.425Z,51
2023-03-18T14:39:06.388Z,52
2023-03-18T14:41:06.466Z,52
2023-03-18T14:43:06.484Z,52
2023-03-18T14:45:06.437Z,52
2023-03-18T14:47:06.442Z,52
2023-03-18T14:49:09.510Z,53
2023-03-18T14:51:06.472Z,51
2023-03-18T14:53:06.428Z,51
2023-03-18T14:55:06.341Z,52
2023-03-18T14:57:09.282Z,51
2023-03-18T14:59:06.408Z,51
2023-03-18T15:01:09.651Z,52
2023-03-18T15:03:06.077Z,51
2023-03-18T15:05:06.471Z,52
2023-03-18T15:07:06.323Z,53
2023-03-18T15:09:06.413Z,51
2023-03-18T15:11:09.702Z,51
2023-03-18T15:13:09.480Z,51
2023-03-18T15:15:09.470Z,52
2023-03-18T15:17:06.375Z,51
2023-03-18T15:19:06.344Z,52
2023-03-18T15:21:06.448Z,52
2023-03-18T15:23:06.207Z,52
2023-03-18T15:25:06.716Z,53
2023-03-18T15:27:06.433Z,53
2023-03-18T15:29:06.393Z,52
2023-03-18T15:31:07.604Z,53
2023-03-18T15:33:06.493Z,52
2023-03-18T15:35:06.022Z,52
2023-03-18T15:37:09.223Z,53
2023-03-18T15:39:10.093Z,53
2023-03-18T15:41:06.448Z,53
2023-03-18T15:43:06.502Z,53
2023-03-18T15:45:06.449Z,52
2023-03-18T15:47:06.495Z,53
2023-03-18T15:49:06.385Z,53
2023-03-18T15:51:06.580Z,53
2023-03-18T15:53:06.440Z,53
2023-03-18T15:55:09.882Z,53
2023-03-18T15:57:09.478Z,53
2023-03-18T15:59:06.472Z,53
2023-03-18T16:01:06.482Z,53
2023-03-18T16:03:08.018Z,53
2023-03-18T16:05:09.283Z,54
2023-03-18T16:07:06.368Z,55
2023-03-18T16:09:10.004Z,55
2023-03-18T16:13:06.463Z,56
2023-03-18T16:15:06.391Z,56
2023-03-18T16:17:05.978Z,57
2023-03-18T16:19:09.332Z,56
2023-03-18T16:21:06.432Z,56
2023-03-18T16:23:08.014Z,56
2023-03-18T16:25:05.756Z,55
2023-03-18T16:27:06.418Z,55
2023-03-18T16:29:06.450Z,55
2023-03-18T16:31:06.472Z,54
2023-03-18T16:33:06.577Z,55
2023-03-18T16:35:07.980Z,55
2023-03-18T16:37:05.993Z,56
2023-03-18T16:39:06.408Z,56
2023-03-18T16:41:09.788Z,56
2023-03-18T16:43:06.490Z,57
2023-03-18T16:45:06.437Z,57
2023-03-18T16:47:06.360Z,57
2023-03-18T16:49:06.411Z,57
2023-03-18T16:53:06.430Z,56
2023-03-18T16:55:09.465Z,56
2023-03-18T16:57:06.057Z,56
2023-03-18T16:59:06.375Z,57
2023-03-18T17:01:08.815Z,56
2023-03-18T17:05:06.519Z,56
2023-03-18T17:07:06.530Z,56
2023-03-18T17:09:09.308Z,56
2023-03-18T17:11:06.449Z,56
2023-03-18T17:13:06.475Z,56
2023-03-18T17:15:06.431Z,56
2023-03-18T17:17:06.440Z,56
2023-03-18T17:21:09.261Z,56
2023-03-18T17:23:06.656Z,57
2023-03-18T17:25:06.409Z,57
2023-03-18T17:27:09.752Z,57
2023-03-18T17:29:06.437Z,57
2023-03-18T17:33:06.457Z,57
2023-03-18T17:35:06.448Z,57
2023-03-18T17:37:06.015Z,58
2023-03-18T17:39:06.400Z,58
2023-03-18T17:41:07.345Z,58
2023-03-18T17:43:09.795Z,58
2023-03-18T17:45:10.502Z,58
2023-03-18T17:47:03.185Z,58
2023-03-18T17:49:06.609Z,59
2023-03-18T17:51:09.997Z,59
2023-03-18T17:53:09.334Z,59
2023-03-18T17:55:06.420Z,59
2023-03-18T17:57:06.031Z,59
2023-03-18T17:59:06.401Z,59
2023-03-18T18:01:06.442Z,59
2023-03-18T18:03:06.583Z,59
2023-03-18T18:05:08.248Z,59
2023-03-18T18:07:05.968Z,59
2023-03-18T18:09:05.964Z,59
2023-03-18T18:11:06.465Z,59
2023-03-18T18:13:09.381Z,59
2023-03-18T18:15:09.501Z,59
2023-03-18T18:17:09.241Z,59
2023-03-18T18:19:09.038Z,59
2023-03-18T18:21:06.438Z,59
2023-03-18T18:23:09.515Z,60
2023-03-18T18:25:06.456Z,60
2023-03-18T18:27:06.004Z,61
2023-03-18T18:29:05.730Z,61
2023-03-18T18:31:06.519Z,61
2023-03-18T18:33:06.534Z,61
2023-03-18T18:35:06.394Z,60
2023-03-18T18:39:10.690Z,60
2023-03-18T18:41:06.474Z,60
2023-03-18T18:43:09.483Z,60
2023-03-18T18:45:09.716Z,62
2023-03-18T18:47:06.040Z,62
2023-03-18T18:49:06.449Z,62
2023-03-18T18:51:09.563Z,62
2023-03-18T18:55:10.688Z,61
2023-03-18T18:57:06.041Z,61
2023-03-18T18:59:09.508Z,60
2023-03-18T19:01:06.514Z,59
2023-03-18T19:03:06.467Z,59
2023-03-18T19:05:06.438Z,59
2023-03-18T19:07:06.034Z,59
2023-03-18T19:09:06.440Z,59
2023-03-18T19:11:08.042Z,59
2023-03-18T19:15:06.460Z,58
2023-03-18T19:17:07.817Z,58
2023-03-18T19:19:06.382Z,59
2023-03-18T19:21:06.535Z,59
2023-03-18T19:23:06.541Z,60
2023-03-18T19:25:06.577Z,60
2023-03-18T19:27:06.484Z,60
2023-03-18T19:29:06.736Z,61
2023-03-18T19:31:06.252Z,61
2023-03-18T19:33:06.518Z,61
2023-03-18T19:35:06.441Z,61
2023-03-18T19:37:06.432Z,61
2023-03-18T19:39:05.821Z,61
2023-03-18T19:41:06.509Z,60
2023-03-18T19:43:06.502Z,60
2023-03-18T19:45:06.410Z,61
2023-03-18T19:47:06.482Z,61
2023-03-18T19:49:06.007Z,61
2023-03-18T19:51:06.462Z,62
2023-03-18T19:53:06.447Z,62
2023-03-18T19:55:06.317Z,63
2023-03-18T19:57:05.975Z,62
2023-03-18T19:59:06.497Z,62
2023-03-18T20:01:06.570Z,61
2023-03-18T20:03:06.464Z,61
2023-03-18T20:05:06.748Z,61
2023-03-18T20:07:09.279Z,60
2023-03-18T20:09:10.163Z,60
2023-03-18T20:11:06.434Z,60
2023-03-18T20:13:06.524Z,60
2023-03-18T20:15:06.578Z,60
2023-03-18T20:17:10.545Z,60
2023-03-18T20:19:06.494Z,60
2023-03-18T20:21:06.485Z,60
2023-03-18T20:23:06.524Z,60
2023-03-18T20:25:06.468Z,60
2023-03-18T20:27:09.455Z,60
2023-03-18T20:29:09.530Z,60
2023-03-18T20:31:08.112Z,60
2023-03-18T20:33:06.628Z,60
2023-03-18T20:35:06.455Z,60
2023-03-18T20:37:06.020Z,60
2023-03-18T20:39:06.111Z,61
2023-03-18T20:41:06.420Z,61
2023-03-18T20:43:06.483Z,62
2023-03-18T20:45:06.462Z,64
2023-03-18T20:47:06.436Z,64
2023-03-18T20:51:09.556Z,64
2023-03-18T20:53:06.465Z,64
2023-03-18T20:55:09.526Z,64
2023-03-18T20:57:06.525Z,63
2023-03-18T21:01:06.444Z,61
2023-03-18T21:03:06.493Z,61
2023-03-18T21:05:06.446Z,61
2023-03-18T21:07:12.538Z,61
2023-03-18T21:09:08.895Z,63
2023-03-18T21:11:12.874Z,64
2023-03-18T21:13:06.424Z,66
2023-03-18T21:15:06.741Z,67
2023-03-18T21:17:06.725Z,67
2023-03-18T21:19:06.431Z,68
2023-03-18T21:21:06.443Z,69
2023-03-18T21:23:06.456Z,69
2023-03-18T21:25:08.815Z,70
2023-03-18T21:27:09.508Z,72
2023-03-18T21:29:12.728Z,73
2023-03-18T21:31:06.577Z,74
2023-03-18T21:33:09.547Z,74
2023-03-18T21:35:06.448Z,74
2023-03-18T21:37:06.467Z,76
2023-03-18T21:39:06.589Z,76
2023-03-18T21:41:09.522Z,76
2023-03-18T21:43:06.238Z,76
2023-03-18T21:45:06.460Z,74
2023-03-18T21:47:06.482Z,73
2023-03-18T21:49:06.537Z,72
2023-03-18T21:51:06.518Z,72
2023-03-18T21:53:07.938Z,71
2023-03-18T21:55:06.423Z,71
2023-03-18T21:57:06.804Z,70
2023-03-18T21:59:06.507Z,70
2023-03-18T22:01:06.511Z,70
2023-03-18T22:03:06.606Z,70
2023-03-18T22:05:09.323Z,71
2023-03-18T22:07:09.360Z,72
2023-03-18T22:09:06.519Z,74
2023-03-18T22:11:09.762Z,75
2023-03-18T22:13:06.500Z,76
2023-03-18T22:15:09.353Z,76
2023-03-18T22:17:09.295Z,76
2023-03-18T22:19:09.576Z,76
2023-03-18T22:21:06.488Z,76
2023-03-18T22:23:06.458Z,76
2023-03-18T22:25:06.475Z,76
2023-03-18T22:27:06.437Z,76
2023-03-18T22:29:09.568Z,75
2023-03-18T22:31:06.487Z,74
2023-03-18T22:33:04.553Z,74
2023-03-18T22:35:06.497Z,73
2023-03-18T22:37:06.569Z,74
2023-03-18T22:39:06.437Z,73
2023-03-18T22:43:06.527Z,72
2023-03-18T22:45:06.544Z,72
2023-03-18T22:47:09.609Z,72
2023-03-18T22:49:09.484Z,72
2023-03-18T22:51:12.547Z,72
2023-03-18T22:53:06.603Z,72
2023-03-18T22:55:06.588Z,72
2023-03-18T22:57:06.508Z,73
2023-03-18T22:59:06.059Z,72
2023-03-18T23:01:06.545Z,72
2023-03-18T23:03:06.555Z,73
2023-03-18T23:07:06.517Z,74
2023-03-18T23:09:06.543Z,74
2023-03-18T23:11:06.705Z,76
2023-03-18T23:13:05.822Z,77
2023-03-18T23:15:08.062Z,77
2023-03-18T23:17:06.545Z,77
2023-03-18T23:19:06.528Z,77
2023-03-18T23:21:09.320Z,77
2023-03-18T23:23:06.506Z,78
2023-03-18T23:25:06.496Z,78
2023-03-18T23:27:12.699Z,78
2023-03-18T23:29:06.486Z,78
2023-03-18T23:31:06.540Z,79
2023-03-18T23:33:08.541Z,78
2023-03-18T23:35:08.041Z,78
2023-03-18T23:37:09.590Z,78
2023-03-18T23:39:08.052Z,78
2023-03-18T23:41:06.578Z,78
2023-03-18T23:43:06.040Z,78
2023-03-18T23:45:06.545Z,77
2023-03-18T23:47:09.851Z,77
2023-03-18T23:49:06.435Z,76
2023-03-18T23:51:09.303Z,77
2023-03-18T23:53:06.047Z,77
2023-03-18T23:55:22.480Z,77
2023-03-18T23:57:06.556Z,76
2023-03-18T23:59:06.451Z,77
